Hopland, CA (95449)

7:45 AM PDT on October 25, 2014 (GMT -0700)
McNab Ranch | Change Station
CLOSE
Current Station
Personal Weather Station
Location: Ukiah, CA
Elevation: 1260 ft
Nearby Weather Stations
Active Advisory: Wind Advisory

Elev 1260 ft 39.03 °N, 123.18 °W | Updated 2 seconds ago

Overcast
Overcast
53.9 °F
Feels Like 53.9 °F
N
5.4
Wind Variable Wind from East
Gusts 6.0 mph

Today
High -- | Low -- °F
--% Chance of Precip.
Yesterday
High -- | Low -- °F
Precip. -- in
7:32 AM 6:20 PM
Waxing Crescent, 3% visible
Pressure 29.86 in
Visibility 10.0 miles
Clouds Few 1700 ft
Mostly Cloudy 3000 ft
Overcast 4600 ft
Dew Point 52 °F
Humidity 95%
Rainfall 0.25 in
Snow Depth Not available.
UV 0 out of 12
Pollen 2.40 out of 12
Air Quality Not available.
Flu Activity Sporadic
METAR KUKI 251356Z AUTO 17007KT 10SM FEW017 BKN030 OVC046 14/12 A2988 RMK AO2 RAB11E51 SLP111 P0002 T01390122

More Conditions Fewer Conditions

Pressure 29.86 in
Visibility 10.0 miles
Clouds Few 1700 ft
Mostly Cloudy 3000 ft
Overcast 4600 ft
Dew Point 52 °F
Humidity 95%
Rainfall 0.25 in
Snow Depth Not available.
UV 0 out of 12
Pollen 2.40 out of 12
Air Quality Not available.
Flu Activity Sporadic
METAR KUKI 251356Z AUTO 17007KT 10SM FEW017 BKN030 OVC046 14/12 A2988 RMK AO2 RAB11E51 SLP111 P0002 T01390122

More Conditions Fewer Conditions

10-Day Weather Forecast

Almanac

Astronomy

Oct. 25, 2014 Rise Set
Actual Time 7:32 AM PDT 6:20 PM PDT
Civil Twilight 7:05 AM PDT 6:47 PM PDT
Nautical Twilight 6:33 AM PDT 7:18 PM PDT
Astronomical Twilight 6:02 AM PDT 7:49 PM PDT
Moon 9:16 AM PDT 7:48 PM PDT
Length of Visible Light 11h 42m
Length of Day
10h 47m
Tomorrow will be 2m 20s shorter.
Waxing Crescent, 3% of the Moon is Illuminated
Today
Waxing Crescent
Oct 30
First Quarter
Nov 6
Full
Nov 14
Last Quarter
Nov 22
New

Today's Extremes

State Highs State Lows

Community

WunderPhotos

Upload Photos

1,764,861 photos uploaded!

Nearby

Snow Depth

Station Depth Elevation
CSS Lab 0 in 6900 ft
Independence Lake 0 in 8450 ft
Squaw Valley 0 in 8200 ft
Independence Camp 0 in 7000 ft
Tahoe City Cross 1 in 6750 ft

Earthquake Activity

City Distance Mag. Time & Date
Antioch, California 94 miles 2.7 6:42 AM PDT
2014-10-25
Deer Park, California 47 miles 2.8 6:40 AM PDT
2014-10-25
Minimum magnitude displayed is 2.5.

Coastal Water Temperatures

Place Temperature
Point Reyes, CA 61.0 °F
Arena Cove, CA 61.0 °F
San Francisco, CA 63.0 °F
Richmond, CA 64.0 °F

Nearby Weather Stations